createdAt,value
2022-11-21T00:01:43.468Z,19.60
2022-11-21T00:04:12.839Z,19.60
2022-11-21T00:06:41.909Z,19.60
2022-11-21T00:09:12.479Z,19.60
2022-11-21T00:11:41.590Z,19.60
2022-11-21T00:14:10.713Z,19.60
2022-11-21T00:16:39.941Z,19.50
2022-11-21T00:19:09.420Z,19.50
2022-11-21T00:21:38.570Z,19.50
2022-11-21T00:24:08.662Z,19.50
2022-11-21T00:26:39.482Z,19.50
2022-11-21T00:29:08.871Z,19.50
2022-11-21T00:31:37.910Z,19.50
2022-11-21T00:34:07.080Z,19.50
2022-11-21T00:36:36.249Z,19.50
2022-11-21T00:39:05.563Z,19.50
2022-11-21T00:41:34.680Z,19.50
2022-11-21T00:44:05.444Z,19.50
2022-11-21T00:46:34.582Z,19.40
2022-11-21T00:49:03.686Z,19.40
2022-11-21T00:51:32.768Z,19.40
2022-11-21T00:54:02.082Z,19.40
2022-11-21T00:56:31.248Z,19.40
2022-11-21T00:59:00.419Z,19.40
2022-11-21T01:01:31.078Z,19.40
2022-11-21T01:04:00.601Z,19.40
2022-11-21T01:06:29.882Z,19.40
2022-11-21T01:08:59.115Z,19.40
2022-11-21T01:11:28.188Z,19.40
2022-11-21T01:13:57.492Z,19.40
2022-11-21T01:16:27.939Z,19.30
2022-11-21T01:18:58.680Z,19.30
2022-11-21T01:21:29.311Z,19.30
2022-11-21T01:24:00.822Z,19.30
2022-11-21T01:26:31.404Z,19.30
2022-11-21T01:29:00.777Z,19.30
2022-11-21T01:31:31.168Z,19.30
2022-11-21T01:34:02.245Z,19.30
2022-11-21T01:36:33.241Z,19.30
2022-11-21T01:39:04.027Z,19.30
2022-11-21T01:41:35.686Z,19.20
2022-11-21T01:44:11.342Z,19.20
2022-11-21T01:46:40.474Z,19.20
2022-11-21T01:49:13.870Z,19.20
2022-11-21T01:51:46.597Z,19.20
2022-11-21T01:54:20.196Z,19.20
2022-11-21T01:56:54.872Z,19.20
2022-11-21T01:59:29.087Z,19.20
2022-11-21T02:02:01.371Z,19.20
2022-11-21T02:04:34.212Z,19.20
2022-11-21T02:07:05.879Z,19.20
2022-11-21T02:09:37.553Z,19.20
2022-11-21T02:12:10.150Z,19.20
2022-11-21T02:14:41.727Z,19.10
2022-11-21T02:17:11.953Z,19.10
2022-11-21T02:19:50.497Z,19.10
2022-11-21T02:22:26.560Z,19.10
2022-11-21T02:25:03.656Z,19.10
2022-11-21T02:27:33.215Z,19.10
2022-11-21T02:30:04.569Z,19.10
2022-11-21T02:32:36.878Z,19.10
2022-11-21T02:35:06.884Z,19.10
2022-11-21T02:37:38.649Z,19.10
2022-11-21T02:40:14.266Z,19.10
2022-11-21T02:42:52.792Z,19.10
2022-11-21T02:45:27.019Z,19.10
2022-11-21T02:48:03.445Z,19.10
2022-11-21T02:50:35.543Z,19.10
2022-11-21T02:53:05.853Z,19.10
2022-11-21T02:55:36.985Z,19.10
2022-11-21T02:58:06.493Z,19.00
2022-11-21T03:00:36.967Z,19.00
2022-11-21T03:03:06.268Z,19.00
2022-11-21T03:05:35.486Z,19.00
2022-11-21T03:08:05.761Z,19.00
2022-11-21T03:10:36.344Z,19.00
2022-11-21T03:13:05.578Z,19.00
2022-11-21T03:15:35.962Z,19.00
2022-11-21T03:18:05.952Z,19.00
2022-11-21T03:20:36.181Z,19.00
2022-11-21T03:23:05.730Z,19.00
2022-11-21T03:25:36.384Z,19.00
2022-11-21T03:28:05.875Z,19.00
2022-11-21T03:30:34.961Z,19.00
2022-11-21T03:33:04.100Z,19.00
2022-11-21T03:35:33.188Z,19.00
2022-11-21T03:38:02.364Z,19.00
2022-11-21T03:40:31.521Z,19.00
2022-11-21T03:43:07.886Z,19.00
2022-11-21T03:45:37.091Z,18.90
2022-11-21T03:48:06.624Z,19.00
2022-11-21T03:50:35.837Z,18.90
2022-11-21T03:53:04.978Z,18.90
2022-11-21T03:55:34.108Z,18.90
2022-11-21T03:58:03.165Z,18.90
2022-11-21T04:00:33.706Z,18.90
2022-11-21T04:03:02.844Z,18.90
2022-11-21T04:05:32.093Z,18.90
2022-11-21T04:08:01.201Z,18.90
2022-11-21T04:10:30.282Z,18.90
2022-11-21T04:12:59.539Z,18.90
2022-11-21T04:15:28.670Z,18.80
2022-11-21T04:17:59.253Z,18.80
2022-11-21T04:20:28.444Z,18.80
2022-11-21T04:22:57.497Z,18.80
2022-11-21T04:25:26.743Z,18.80
2022-11-21T04:27:58.022Z,18.80
2022-11-21T04:30:27.969Z,18.80
2022-11-21T04:32:59.262Z,18.80
2022-11-21T04:35:28.674Z,18.80
2022-11-21T04:37:57.770Z,18.80
2022-11-21T04:40:26.883Z,18.80
2022-11-21T04:42:55.989Z,18.80
2022-11-21T04:45:25.216Z,18.80
2022-11-21T04:47:54.312Z,18.80
2022-11-21T04:50:25.410Z,18.80
2022-11-21T04:52:56.523Z,18.80
2022-11-21T04:55:28.907Z,18.80
2022-11-21T04:57:58.113Z,18.70
2022-11-21T05:00:27.224Z,18.70
2022-11-21T05:02:56.315Z,18.70
2022-11-21T05:05:26.912Z,18.70
2022-11-21T05:07:56.077Z,18.70
2022-11-21T05:10:25.487Z,18.70
2022-11-21T05:13:18.890Z,18.70
2022-11-21T05:15:51.679Z,18.70
2022-11-21T05:18:21.106Z,18.70
2022-11-21T05:20:51.642Z,18.70
2022-11-21T05:23:20.855Z,18.70
2022-11-21T05:25:49.983Z,18.70
2022-11-21T05:28:19.138Z,18.80
2022-11-21T05:30:48.258Z,18.80
2022-11-21T05:33:17.438Z,18.80
2022-11-21T05:35:46.509Z,18.90
2022-11-21T05:38:17.067Z,18.80
2022-11-21T05:40:46.171Z,18.80
2022-11-21T05:43:32.803Z,18.80
2022-11-21T05:46:02.121Z,18.80
2022-11-21T05:48:31.473Z,18.80
2022-11-21T05:51:00.682Z,18.80
2022-11-21T05:53:31.772Z,18.80
2022-11-21T05:56:05.261Z,18.80
2022-11-21T05:58:34.775Z,18.70
2022-11-21T06:01:05.172Z,18.70
2022-11-21T06:03:36.015Z,18.70
2022-11-21T06:06:07.253Z,18.70
2022-11-21T06:08:39.550Z,18.70
2022-11-21T06:11:10.050Z,18.70
2022-11-21T06:13:39.676Z,18.70
2022-11-21T06:16:10.299Z,18.60
2022-11-21T06:18:40.775Z,18.60
2022-11-21T06:21:13.723Z,18.60
2022-11-21T06:23:44.875Z,18.60
2022-11-21T06:26:16.361Z,18.60
2022-11-21T06:28:46.283Z,18.60
2022-11-21T06:31:18.124Z,18.60
2022-11-21T06:33:48.118Z,18.60
2022-11-21T06:36:18.985Z,18.60
2022-11-21T06:38:50.027Z,18.60
2022-11-21T06:41:20.653Z,18.50
2022-11-21T06:43:49.925Z,18.50
2022-11-21T06:46:19.368Z,18.50
2022-11-21T06:48:48.471Z,18.50
2022-11-21T06:51:19.755Z,18.50
2022-11-21T06:53:56.015Z,18.50
2022-11-21T06:56:26.190Z,18.50
2022-11-21T06:58:55.981Z,18.50
2022-11-21T07:01:25.697Z,18.40
2022-11-21T07:03:54.975Z,18.50
2022-11-21T07:06:24.739Z,18.40
2022-11-21T07:09:25.154Z,18.40
2022-11-21T07:11:45.358Z,18.40
2022-11-21T07:14:13.584Z,18.40
2022-11-21T07:16:42.692Z,18.40
2022-11-21T07:19:12.009Z,18.40
2022-11-21T07:21:43.218Z,18.40
2022-11-21T07:24:14.328Z,18.40
2022-11-21T07:26:43.519Z,18.40
2022-11-21T07:29:12.639Z,18.40
2022-11-21T07:31:41.802Z,18.40
2022-11-21T07:34:11.072Z,18.40
2022-11-21T07:36:40.229Z,18.40
2022-11-21T07:39:09.379Z,18.40
2022-11-21T07:41:39.909Z,18.40
2022-11-21T07:44:09.111Z,18.40
2022-11-21T07:46:38.327Z,18.30
2022-11-21T07:49:07.405Z,18.30
2022-11-21T07:51:37.431Z,18.30
2022-11-21T07:54:07.095Z,18.30
2022-11-21T07:56:36.277Z,18.30
2022-11-21T07:59:06.847Z,18.30
2022-11-21T08:01:36.037Z,18.30
2022-11-21T08:04:05.322Z,18.30
2022-11-21T08:06:34.471Z,18.30
2022-11-21T08:09:03.747Z,18.30
2022-11-21T08:11:32.806Z,18.30
2022-11-21T08:14:02.007Z,18.30
2022-11-21T08:16:33.120Z,18.30
2022-11-21T08:19:02.382Z,18.30
2022-11-21T08:21:31.598Z,18.30
2022-11-21T08:24:00.746Z,18.30
2022-11-21T08:26:30.838Z,18.30
2022-11-21T08:29:00.223Z,18.30
2022-11-21T08:31:29.503Z,18.30
2022-11-21T08:34:00.281Z,18.30
2022-11-21T08:36:29.384Z,18.30
2022-11-21T08:38:58.542Z,18.30
2022-11-21T08:41:45.174Z,18.30
2022-11-21T08:44:14.516Z,18.30
2022-11-21T08:46:43.677Z,18.20
2022-11-21T08:49:14.205Z,18.20
2022-11-21T08:51:43.413Z,18.20
2022-11-21T08:54:12.767Z,18.20
2022-11-21T08:56:41.933Z,18.20
2022-11-21T08:59:11.059Z,18.20
2022-11-21T09:01:40.278Z,18.30
2022-11-21T09:04:09.827Z,18.20
2022-11-21T09:06:40.557Z,18.30
2022-11-21T09:09:09.843Z,18.20
2022-11-21T09:11:38.970Z,18.30
2022-11-21T09:14:25.719Z,18.20
2022-11-21T09:17:12.736Z,18.20
2022-11-21T09:19:41.892Z,18.30
2022-11-21T09:22:12.351Z,18.20
2022-11-21T09:24:41.559Z,18.30
2022-11-21T09:27:10.696Z,18.30
2022-11-21T09:29:39.891Z,18.30
2022-11-21T09:32:09.032Z,18.30
2022-11-21T09:34:38.191Z,18.30
2022-11-21T09:37:07.366Z,18.20
2022-11-21T09:39:37.862Z,18.20
2022-11-21T09:42:27.339Z,18.20
2022-11-21T09:45:06.024Z,18.20
2022-11-21T09:47:38.360Z,18.20
2022-11-21T09:50:26.305Z,18.20
2022-11-21T09:53:01.798Z,18.20
2022-11-21T09:55:41.262Z,18.20
2022-11-21T09:58:20.701Z,18.20
2022-11-21T10:00:53.211Z,18.10
2022-11-21T10:03:25.579Z,18.20
2022-11-21T10:05:57.481Z,18.20
2022-11-21T10:08:35.410Z,18.20
2022-11-21T10:11:20.415Z,18.20
2022-11-21T10:14:04.694Z,18.20
2022-11-21T10:16:44.246Z,18.20
2022-11-21T10:19:40.500Z,18.20
2022-11-21T10:22:29.222Z,18.20
2022-11-21T10:25:04.633Z,18.20
2022-11-21T10:27:38.941Z,18.20
2022-11-21T10:30:15.786Z,18.20
2022-11-21T10:32:48.811Z,18.20
2022-11-21T10:35:21.807Z,18.20
2022-11-21T10:37:53.850Z,18.20
2022-11-21T10:40:34.123Z,18.20
2022-11-21T10:43:23.789Z,18.20
2022-11-21T10:45:53.951Z,18.20
2022-11-21T10:48:23.220Z,18.20
2022-11-21T10:51:07.261Z,18.20
2022-11-21T10:53:53.834Z,18.20
2022-11-21T10:56:25.637Z,18.20
2022-11-21T10:58:58.072Z,18.20
2022-11-21T11:01:29.125Z,18.20
2022-11-21T11:04:27.689Z,18.20
2022-11-21T11:07:00.281Z,18.20
2022-11-21T11:09:31.956Z,18.20
2022-11-21T11:12:47.246Z,18.20
2022-11-21T11:15:22.310Z,18.20
2022-11-21T11:17:54.435Z,18.20
2022-11-21T11:20:38.163Z,18.10
2022-11-21T11:23:26.739Z,18.20
2022-11-21T11:25:57.871Z,18.20
2022-11-21T11:28:28.168Z,18.20
2022-11-21T11:30:59.096Z,18.20
2022-11-21T11:33:36.894Z,18.20
2022-11-21T11:36:16.339Z,18.20
2022-11-21T11:38:53.743Z,18.20
2022-11-21T11:42:16.398Z,18.20
2022-11-21T11:45:13.013Z,18.20
2022-11-21T11:47:54.476Z,18.20
2022-11-21T11:50:28.294Z,18.20
2022-11-21T11:53:05.762Z,18.20
2022-11-21T11:55:41.888Z,18.20
2022-11-21T11:58:21.815Z,18.20
2022-11-21T12:00:59.099Z,18.20
2022-11-21T12:03:38.095Z,18.10
2022-11-21T12:06:12.695Z,18.20
2022-11-21T12:08:53.127Z,18.10
2022-11-21T12:11:49.444Z,18.20
2022-11-21T12:15:00.094Z,18.10
2022-11-21T12:17:36.582Z,18.20
2022-11-21T12:20:16.596Z,18.10
2022-11-21T12:22:47.711Z,18.10
2022-11-21T12:25:17.366Z,18.10
2022-11-21T12:27:53.088Z,18.10
2022-11-21T12:30:57.948Z,18.10
2022-11-21T12:33:27.271Z,18.10
2022-11-21T12:36:32.197Z,18.10
2022-11-21T12:39:33.321Z,18.10
2022-11-21T12:42:25.936Z,18.10
2022-11-21T12:45:09.594Z,18.00
2022-11-21T12:48:24.834Z,18.10
2022-11-21T12:51:26.677Z,18.00
2022-11-21T12:54:30.886Z,18.00
2022-11-21T12:57:08.783Z,18.00
2022-11-21T12:59:49.562Z,18.10
2022-11-21T13:02:32.862Z,18.00
2022-11-21T13:05:04.356Z,18.00
2022-11-21T13:07:34.575Z,18.00
2022-11-21T13:10:06.494Z,18.00
2022-11-21T13:12:42.218Z,18.00
2022-11-21T13:15:20.984Z,18.00
2022-11-21T13:17:55.889Z,18.10
2022-11-21T13:20:33.063Z,18.00
2022-11-21T13:23:06.694Z,18.10
2022-11-21T13:25:47.490Z,18.00
2022-11-21T13:28:34.102Z,18.00
2022-11-21T13:31:07.028Z,18.00
2022-11-21T13:33:52.367Z,18.00
2022-11-21T13:36:40.354Z,18.00
2022-11-21T13:39:31.681Z,18.00
2022-11-21T13:42:24.568Z,17.90
2022-11-21T13:44:54.212Z,17.90
2022-11-21T13:47:57.192Z,17.90
2022-11-21T13:50:50.534Z,17.90
2022-11-21T13:53:39.230Z,17.90
2022-11-21T13:56:18.795Z,18.00
2022-11-21T13:59:01.410Z,17.90
2022-11-21T14:01:54.037Z,17.90
2022-11-21T14:05:01.994Z,17.90
2022-11-21T14:07:33.557Z,17.90
2022-11-21T14:10:03.844Z,17.90
2022-11-21T14:12:39.754Z,17.90
2022-11-21T14:15:24.019Z,17.90
2022-11-21T14:17:56.223Z,17.90
2022-11-21T14:20:27.802Z,17.90
2022-11-21T14:23:00.261Z,17.90
2022-11-21T14:25:38.019Z,17.90
2022-11-21T14:28:11.564Z,17.90
2022-11-21T14:30:43.525Z,17.90
2022-11-21T14:33:27.130Z,17.90
2022-11-21T14:36:00.249Z,17.90
2022-11-21T14:38:30.972Z,17.90
2022-11-21T14:41:32.823Z,17.90
2022-11-21T14:44:16.983Z,17.90
2022-11-21T14:46:48.161Z,17.90
2022-11-21T14:49:29.537Z,17.80
2022-11-21T14:52:17.163Z,17.80
2022-11-21T14:55:15.318Z,17.80
2022-11-21T14:57:43.523Z,17.80
2022-11-21T15:00:43.129Z,17.80
2022-11-21T15:03:21.057Z,17.90
2022-11-21T15:09:23.608Z,17.80
2022-11-21T15:11:36.152Z,17.80
2022-11-21T15:14:15.978Z,17.80
2022-11-21T15:16:47.994Z,17.80
2022-11-21T15:19:23.372Z,17.80
2022-11-21T15:21:54.402Z,17.80
2022-11-21T15:24:37.825Z,17.80
2022-11-21T15:27:30.245Z,17.80
2022-11-21T15:30:27.625Z,17.80
2022-11-21T15:33:18.001Z,17.80
2022-11-21T15:35:55.972Z,17.80
2022-11-21T15:38:41.750Z,17.80
2022-11-21T15:41:29.033Z,17.80
2022-11-21T15:44:20.401Z,17.80
2022-11-21T15:46:53.258Z,17.80
2022-11-21T15:49:32.493Z,17.70
2022-11-21T15:52:09.047Z,17.80
2022-11-21T15:54:39.017Z,17.70
2022-11-21T15:57:08.102Z,17.80
2022-11-21T15:59:37.220Z,17.80
2022-11-21T16:02:06.439Z,17.80
2022-11-21T16:04:36.044Z,17.90
2022-11-21T16:07:06.812Z,17.90
2022-11-21T16:09:36.268Z,18.00
2022-11-21T16:12:05.712Z,18.00
2022-11-21T16:14:34.881Z,17.90
2022-11-21T16:17:04.021Z,18.00
2022-11-21T16:19:33.231Z,18.00
2022-11-21T16:22:02.294Z,18.00
2022-11-21T16:24:32.894Z,18.00
2022-11-21T16:27:02.507Z,18.10
2022-11-21T16:29:31.849Z,18.20
2022-11-21T16:32:01.109Z,18.30
2022-11-21T16:34:30.608Z,18.40
2022-11-21T16:37:04.205Z,18.50
2022-11-21T16:39:37.629Z,18.60
2022-11-21T16:42:06.910Z,18.80
2022-11-21T16:44:36.208Z,18.90
2022-11-21T16:47:08.551Z,19.00
2022-11-21T16:49:43.046Z,19.10
2022-11-21T16:52:12.736Z,19.20
2022-11-21T16:54:43.381Z,19.30
2022-11-21T16:57:12.638Z,19.40
2022-11-21T16:59:41.762Z,19.40
2022-11-21T17:02:11.476Z,19.50
2022-11-21T17:04:40.673Z,19.60
2022-11-21T17:07:09.824Z,19.70
2022-11-21T17:09:39.086Z,19.70
2022-11-21T17:12:09.787Z,19.80
2022-11-21T17:14:38.965Z,19.80
2022-11-21T17:17:08.107Z,19.90
2022-11-21T17:19:37.192Z,20.00
2022-11-21T17:22:06.525Z,20.00
2022-11-21T17:24:35.937Z,20.10
2022-11-21T17:27:05.486Z,20.10
2022-11-21T17:29:36.205Z,20.10
2022-11-21T17:32:05.570Z,20.20
2022-11-21T17:34:35.326Z,20.30
2022-11-21T17:37:04.914Z,20.30
2022-11-21T17:39:34.240Z,20.30
2022-11-21T17:42:03.564Z,20.30
2022-11-21T17:44:33.461Z,20.40
2022-11-21T17:47:04.142Z,20.50
2022-11-21T17:49:37.287Z,20.50
2022-11-21T17:52:07.942Z,20.60
2022-11-21T17:54:37.198Z,20.60
2022-11-21T17:57:06.875Z,20.60
2022-11-21T17:59:38.658Z,20.60
2022-11-21T18:02:10.183Z,20.60
2022-11-21T18:04:40.590Z,20.60
2022-11-21T18:07:09.988Z,20.60
2022-11-21T18:09:39.443Z,20.60
2022-11-21T21:06:27.899Z,17.50
2022-11-21T21:08:57.159Z,17.70
2022-11-21T21:14:16.030Z,18.00
2022-11-21T21:16:45.276Z,18.30
2022-11-21T21:19:14.425Z,18.50
2022-11-21T21:21:45.029Z,18.70
2022-11-21T21:24:14.842Z,18.80
2022-11-21T21:26:46.467Z,19.00
2022-11-21T21:29:18.577Z,19.10
2022-11-21T21:31:52.847Z,19.10
2022-11-21T21:34:23.639Z,19.20
2022-11-21T21:36:54.191Z,19.30
2022-11-21T21:39:23.289Z,19.30
2022-11-21T21:41:52.491Z,19.30
2022-11-21T21:44:21.735Z,19.30
2022-11-21T21:46:50.919Z,19.40
2022-11-21T21:49:20.057Z,19.40
2022-11-21T21:51:49.163Z,19.40
2022-11-21T21:54:21.748Z,19.40
2022-11-21T21:56:51.737Z,19.40
2022-11-21T21:59:20.931Z,19.40
2022-11-21T22:01:50.375Z,19.40
2022-11-21T22:04:19.658Z,19.40
2022-11-21T22:06:48.832Z,19.40
2022-11-21T22:09:19.490Z,19.40
2022-11-21T22:11:48.664Z,19.50
2022-11-21T22:14:18.242Z,19.50
2022-11-21T22:16:47.348Z,19.40
2022-11-21T22:19:16.869Z,19.40
2022-11-21T22:21:46.028Z,19.40
2022-11-21T22:24:25.382Z,19.40
2022-11-21T22:26:56.329Z,19.40
2022-11-21T22:29:25.467Z,19.40
2022-11-21T22:31:54.580Z,19.40
2022-11-21T22:34:24.210Z,19.40
2022-11-21T22:36:53.401Z,19.40
2022-11-21T22:39:22.506Z,19.40
2022-11-21T22:41:55.660Z,19.40
2022-11-21T22:44:29.354Z,19.40
2022-11-21T22:46:58.733Z,19.40
2022-11-21T22:49:27.843Z,19.40
2022-11-21T22:51:56.983Z,19.40
2022-11-21T22:54:26.254Z,19.40
2022-11-21T22:56:55.326Z,19.40
2022-11-21T22:59:24.431Z,19.30
2022-11-21T23:01:55.029Z,19.30
2022-11-21T23:04:24.205Z,19.40
2022-11-21T23:06:53.442Z,19.30
2022-11-21T23:09:22.566Z,19.30
2022-11-21T23:11:51.813Z,19.30
2022-11-21T23:14:21.134Z,19.30
2022-11-21T23:16:50.335Z,19.30
2022-11-21T23:19:21.028Z,19.30
2022-11-21T23:21:50.791Z,19.30
2022-11-21T23:24:19.990Z,19.30
2022-11-21T23:26:49.138Z,19.30
2022-11-21T23:29:18.277Z,19.30
2022-11-21T23:31:47.435Z,19.20
2022-11-21T23:34:16.672Z,19.20
2022-11-21T23:36:47.225Z,19.30
2022-11-21T23:39:16.414Z,19.20
2022-11-21T23:41:45.510Z,19.20
2022-11-21T23:44:14.843Z,19.20
2022-11-21T23:46:43.943Z,19.20
2022-11-21T23:49:13.074Z,19.20
2022-11-21T23:51:42.242Z,19.20
2022-11-21T23:54:13.014Z,19.20
2022-11-21T23:56:42.221Z,19.20
2022-11-21T23:59:12.924Z,19.20
